createdAt,value
2022-09-06T00:00:31.116Z,4.83
2022-09-06T00:02:59.891Z,4.20
2022-09-06T00:05:28.672Z,4.77
2022-09-06T00:08:00.284Z,4.73
2022-09-06T00:10:28.898Z,3.90
2022-09-06T00:12:57.523Z,3.70
2022-09-06T00:15:26.169Z,4.73
2022-09-06T00:17:54.623Z,3.80
2022-09-06T00:20:22.819Z,3.67
2022-09-06T00:22:51.096Z,4.53
2022-09-06T00:25:21.126Z,3.80
2022-09-06T00:27:49.412Z,4.00
2022-09-06T00:30:18.304Z,4.10
2022-09-06T00:32:46.324Z,3.90
2022-09-06T00:35:21.902Z,3.30
2022-09-06T00:37:50.339Z,3.43
2022-09-06T00:40:20.325Z,3.40
2022-09-06T00:42:48.812Z,3.10
2022-09-06T00:45:17.027Z,4.10
2022-09-06T00:47:45.416Z,3.60
2022-09-06T00:50:17.156Z,3.83
2022-09-06T00:52:47.739Z,4.17
2022-09-06T00:55:16.333Z,3.40
2022-09-06T00:57:51.958Z,4.20
2022-09-06T01:00:21.458Z,3.40
2022-09-06T01:02:50.526Z,4.30
2022-09-06T01:05:19.236Z,5.07
2022-09-06T01:07:57.026Z,5.27
2022-09-06T01:10:33.810Z,4.60
2022-09-06T01:13:09.396Z,5.30
2022-09-06T01:15:45.655Z,5.80
2022-09-06T01:18:25.077Z,5.00
2022-09-06T01:21:00.437Z,4.20
2022-09-06T01:24:00.868Z,4.37
2022-09-06T01:26:58.031Z,4.63
2022-09-06T01:29:33.788Z,4.03
2022-09-06T01:32:06.684Z,4.47
2022-09-06T01:34:39.684Z,4.90
2022-09-06T01:37:13.219Z,4.70
2022-09-06T01:39:43.147Z,4.70
2022-09-06T01:42:14.821Z,5.00
2022-09-06T01:44:47.609Z,4.60
2022-09-06T01:47:23.673Z,5.13
2022-09-06T01:50:06.938Z,4.93
2022-09-06T01:52:39.957Z,5.30
2022-09-06T01:55:19.601Z,5.93
2022-09-06T01:57:57.447Z,5.03
2022-09-06T02:00:27.408Z,5.03
2022-09-06T02:03:03.400Z,5.63
2022-09-06T02:05:35.194Z,4.87
2022-09-06T02:08:10.773Z,4.20
2022-09-06T02:10:43.889Z,5.10
2022-09-06T02:13:13.053Z,4.77
2022-09-06T02:15:46.088Z,4.43
2022-09-06T02:18:18.311Z,4.23
2022-09-06T02:20:51.672Z,4.93
2022-09-06T02:23:20.613Z,5.23
2022-09-06T02:25:52.879Z,5.00
2022-09-06T02:28:21.065Z,5.07
2022-09-06T02:30:51.853Z,6.03
2022-09-06T02:33:22.444Z,5.50
2022-09-06T02:35:53.353Z,5.53
2022-09-06T02:38:23.062Z,6.10
2022-09-06T02:40:53.552Z,5.13
2022-09-06T02:43:21.768Z,5.63
2022-09-06T02:45:52.172Z,6.13
2022-09-06T02:48:20.763Z,7.20
2022-09-06T02:50:49.369Z,6.40
2022-09-06T02:53:18.013Z,5.60
2022-09-06T02:55:48.766Z,5.30
2022-09-06T02:58:17.143Z,5.17
2022-09-06T03:00:48.442Z,6.00
2022-09-06T03:03:18.663Z,5.00
2022-09-06T03:05:48.519Z,5.10
2022-09-06T03:08:17.124Z,6.10
2022-09-06T03:10:49.970Z,5.30
2022-09-06T03:13:18.875Z,6.63
2022-09-06T03:15:47.912Z,6.03
2022-09-06T03:18:17.481Z,5.30
2022-09-06T03:20:45.988Z,5.60
2022-09-06T03:23:14.491Z,5.90
2022-09-06T03:25:43.491Z,6.37
2022-09-06T03:28:12.887Z,6.77
2022-09-06T03:30:42.325Z,7.83
2022-09-06T03:33:10.620Z,6.50
2022-09-06T03:35:40.664Z,6.57
2022-09-06T03:38:09.364Z,5.90
2022-09-06T03:40:37.844Z,7.20
2022-09-06T03:43:06.713Z,5.60
2022-09-06T03:45:35.243Z,5.90
2022-09-06T03:48:03.858Z,6.17
2022-09-06T03:50:31.934Z,5.87
2022-09-06T03:53:01.450Z,5.93
2022-09-06T03:55:29.594Z,6.07
2022-09-06T03:57:58.139Z,5.50
2022-09-06T04:00:26.602Z,5.40
2022-09-06T04:02:57.599Z,6.07
2022-09-06T04:05:28.007Z,6.13
2022-09-06T04:07:56.408Z,7.00
2022-09-06T04:10:26.086Z,5.20
2022-09-06T04:12:54.247Z,6.57
2022-09-06T04:15:22.792Z,5.47
2022-09-06T04:17:52.274Z,5.70
2022-09-06T04:20:20.748Z,5.00
2022-09-06T04:22:49.007Z,5.27
2022-09-06T04:25:17.207Z,5.83
2022-09-06T04:27:46.884Z,6.23
2022-09-06T04:30:15.454Z,5.73
2022-09-06T04:32:43.633Z,5.10
2022-09-06T04:35:12.202Z,4.70
2022-09-06T04:37:40.814Z,5.23
2022-09-06T04:40:09.695Z,5.70
2022-09-06T04:42:38.448Z,4.87
2022-09-06T04:45:09.736Z,5.67
2022-09-06T04:47:38.480Z,4.40
2022-09-06T04:50:08.178Z,4.53
2022-09-06T04:52:37.803Z,4.90
2022-09-06T04:55:06.792Z,4.63
2022-09-06T04:57:34.992Z,4.80
2022-09-06T05:00:03.313Z,4.67
2022-09-06T05:02:32.937Z,4.73
2022-09-06T05:05:01.204Z,4.50
2022-09-06T05:07:29.716Z,4.60
2022-09-06T05:09:58.018Z,4.03
2022-09-06T05:12:26.669Z,3.90
2022-09-06T05:14:54.996Z,4.03
2022-09-06T05:17:23.232Z,3.77
2022-09-06T05:19:52.779Z,4.60
2022-09-06T05:22:21.279Z,3.97
2022-09-06T05:24:49.382Z,4.03
2022-09-06T05:27:17.738Z,3.90
2022-09-06T05:29:46.207Z,3.77
2022-09-06T05:32:14.463Z,3.37
2022-09-06T05:34:42.629Z,3.63
2022-09-06T05:37:12.469Z,3.70
2022-09-06T05:39:40.633Z,3.27
2022-09-06T05:42:08.886Z,2.90
2022-09-06T05:44:37.545Z,3.07
2022-09-06T05:47:06.391Z,3.30
2022-09-06T05:49:34.470Z,2.90
2022-09-06T05:52:02.909Z,3.30
2022-09-06T05:54:33.887Z,3.00
2022-09-06T05:57:02.441Z,2.93
2022-09-06T05:59:30.612Z,3.87
2022-09-06T06:01:58.728Z,3.20
2022-09-06T06:04:26.912Z,3.67
2022-09-06T06:06:54.988Z,3.70
2022-09-06T06:09:23.046Z,4.20
2022-09-06T06:11:52.457Z,3.20
2022-09-06T06:14:20.540Z,3.97
2022-09-06T06:16:48.724Z,4.17
2022-09-06T06:19:17.066Z,6.07
2022-09-06T06:21:45.505Z,5.67
2022-09-06T06:24:13.597Z,5.87
2022-09-06T06:26:41.967Z,4.57
2022-09-06T06:29:11.766Z,5.90
2022-09-06T06:31:40.302Z,5.93
2022-09-06T06:34:08.714Z,5.60
2022-09-06T06:36:38.141Z,5.77
2022-09-06T06:39:08.448Z,4.97
2022-09-06T06:41:36.767Z,4.47
2022-09-06T06:44:07.029Z,4.73
2022-09-06T06:46:38.240Z,5.33
2022-09-06T06:49:06.592Z,5.70
2022-09-06T06:51:37.181Z,5.47
2022-09-06T06:54:05.845Z,5.80
2022-09-06T06:56:35.300Z,6.23
2022-09-06T06:59:06.940Z,6.43
2022-09-06T07:01:37.332Z,6.63
2022-09-06T07:04:07.162Z,7.80
2022-09-06T07:12:25.351Z,6.57
2022-09-06T07:14:53.880Z,6.43
2022-09-06T07:17:23.776Z,6.27
2022-09-06T07:22:40.853Z,7.20
2022-09-06T07:25:10.063Z,6.40
2022-09-06T07:30:14.982Z,5.57
2022-09-06T07:32:44.442Z,5.60
2022-09-06T07:35:14.137Z,4.90
2022-09-06T07:37:42.593Z,4.70
2022-09-06T07:40:11.902Z,4.60
2022-09-06T07:42:40.083Z,4.47
2022-09-06T07:45:09.224Z,5.03
2022-09-06T07:53:30.844Z,5.20
2022-09-06T07:56:00.813Z,5.37
2022-09-06T07:58:30.108Z,4.30
2022-09-06T08:01:19.953Z,4.53
2022-09-06T08:03:49.118Z,4.20
2022-09-06T08:06:18.970Z,4.10
2022-09-06T08:09:02.412Z,3.77
2022-09-06T08:11:31.732Z,3.63
2022-09-06T08:14:15.208Z,4.37
2022-09-06T08:16:43.414Z,4.03
2022-09-06T08:19:12.438Z,4.23
2022-09-06T08:21:42.437Z,3.70
2022-09-06T08:24:11.247Z,4.00
2022-09-06T08:26:42.442Z,4.50
2022-09-06T08:29:11.031Z,3.40
2022-09-06T08:31:40.389Z,3.17
2022-09-06T08:34:08.725Z,3.70
2022-09-06T08:36:37.110Z,3.13
2022-09-06T08:39:09.106Z,3.23
2022-09-06T08:41:46.152Z,3.30
2022-09-06T08:47:08.355Z,3.90
2022-09-06T08:49:38.491Z,3.40
2022-09-06T08:52:26.689Z,3.20
2022-09-06T08:55:00.813Z,3.33
2022-09-06T08:57:40.382Z,3.13
2022-09-06T09:00:11.490Z,3.07
2022-09-06T09:02:45.353Z,2.47
2022-09-06T09:05:21.972Z,3.43
2022-09-06T09:07:56.635Z,2.70
2022-09-06T09:10:29.831Z,3.43
2022-09-06T09:12:58.246Z,3.00
2022-09-06T09:15:27.825Z,3.33
2022-09-06T09:17:56.297Z,3.30
2022-09-06T09:20:24.450Z,3.30
2022-09-06T09:22:52.559Z,3.07
2022-09-06T09:25:23.817Z,3.17
2022-09-06T09:27:57.749Z,3.70
2022-09-06T09:33:29.801Z,3.30
2022-09-06T09:36:00.255Z,3.20
2022-09-06T09:38:29.745Z,4.17
2022-09-06T09:40:59.042Z,4.07
2022-09-06T09:43:31.844Z,3.97
2022-09-06T09:46:13.579Z,3.53
2022-09-06T09:48:42.697Z,3.30
2022-09-06T09:51:26.724Z,2.90
2022-09-06T09:53:56.818Z,3.57
2022-09-06T09:56:30.921Z,3.20
2022-09-06T09:59:00.776Z,3.13
2022-09-06T10:01:30.712Z,2.93
2022-09-06T10:07:08.951Z,2.60
2022-09-06T10:09:39.095Z,2.90
2022-09-06T10:12:07.956Z,2.83
2022-09-06T10:14:44.204Z,2.20
2022-09-06T10:17:20.729Z,3.10
2022-09-06T10:19:49.416Z,2.17
2022-09-06T10:22:24.800Z,2.50
2022-09-06T10:25:14.959Z,2.40
2022-09-06T10:28:12.630Z,2.60
2022-09-06T10:30:47.332Z,2.40
2022-09-06T10:33:24.880Z,2.30
2022-09-06T10:35:53.721Z,2.47
2022-09-06T10:38:33.490Z,2.30
2022-09-06T10:41:13.803Z,2.37
2022-09-06T10:43:45.981Z,2.37
2022-09-06T10:46:18.919Z,2.50
2022-09-06T10:48:47.222Z,2.47
2022-09-06T10:51:21.207Z,2.43
2022-09-06T10:53:52.241Z,2.20
2022-09-06T10:56:31.250Z,2.73
2022-09-06T11:02:00.794Z,2.27
2022-09-06T11:04:32.255Z,2.23
2022-09-06T11:07:04.063Z,1.80
2022-09-06T11:09:36.012Z,2.47
2022-09-06T11:12:09.056Z,2.10
2022-09-06T11:14:38.181Z,2.10
2022-09-06T11:17:10.848Z,2.13
2022-09-06T11:19:44.287Z,2.47
2022-09-06T11:22:40.632Z,2.20
2022-09-06T11:25:35.780Z,2.10
2022-09-06T11:28:05.562Z,2.00
2022-09-06T11:30:33.710Z,2.00
2022-09-06T11:33:14.558Z,1.93
2022-09-06T11:35:45.239Z,1.90
2022-09-06T11:38:22.170Z,2.00
2022-09-06T11:40:55.970Z,2.30
2022-09-06T11:43:46.131Z,2.07
2022-09-06T11:46:48.554Z,1.63
2022-09-06T11:49:35.183Z,1.60
2022-09-06T11:52:03.892Z,2.20
2022-09-06T11:54:39.771Z,2.60
2022-09-06T11:57:14.062Z,2.13
2022-09-06T11:59:49.952Z,1.90
2022-09-06T12:02:34.136Z,2.00
2022-09-06T12:05:22.888Z,2.33
2022-09-06T12:08:29.352Z,2.27
2022-09-06T12:11:16.921Z,2.33
2022-09-06T12:14:06.764Z,2.33
2022-09-06T12:17:11.538Z,2.30
2022-09-06T12:19:44.371Z,2.40
2022-09-06T12:23:04.931Z,2.47
2022-09-06T12:25:58.726Z,1.83
2022-09-06T12:28:41.910Z,2.20
2022-09-06T12:31:32.498Z,1.50
2022-09-06T12:34:07.914Z,1.73
2022-09-06T12:36:36.661Z,2.10
2022-09-06T12:39:06.691Z,1.90
2022-09-06T12:41:43.506Z,2.13
2022-09-06T12:44:12.743Z,2.10
2022-09-06T12:46:47.211Z,2.33
2022-09-06T12:49:17.181Z,1.73
2022-09-06T12:51:45.377Z,2.10
2022-09-06T12:54:21.831Z,2.17
2022-09-06T12:56:51.932Z,1.87
2022-09-06T12:59:22.035Z,1.97
2022-09-06T13:01:58.214Z,1.80
2022-09-06T13:04:30.558Z,1.60
2022-09-06T13:06:59.441Z,2.33
2022-09-06T13:09:30.100Z,1.77
2022-09-06T13:12:04.907Z,1.73
2022-09-06T13:14:34.023Z,2.40
2022-09-06T13:17:02.160Z,2.00
2022-09-06T13:19:33.418Z,1.50
2022-09-06T13:22:03.812Z,2.27
2022-09-06T13:24:46.924Z,1.73
2022-09-06T13:27:28.111Z,1.57
2022-09-06T13:29:57.887Z,2.00
2022-09-06T13:32:26.234Z,1.90
2022-09-06T13:34:57.078Z,2.17
2022-09-06T13:37:26.545Z,1.90
2022-09-06T13:39:54.717Z,1.73
2022-09-06T13:42:29.382Z,1.80
2022-09-06T13:45:01.942Z,1.87
2022-09-06T13:47:30.769Z,1.60
2022-09-06T13:49:58.855Z,1.60
2022-09-06T13:52:26.971Z,1.80
2022-09-06T13:54:55.223Z,1.50
2022-09-06T13:57:24.562Z,1.37
2022-09-06T13:59:54.279Z,2.10
2022-09-06T14:02:22.619Z,1.80
2022-09-06T14:04:50.814Z,1.80
2022-09-06T14:07:18.856Z,1.77
2022-09-06T14:09:47.516Z,1.93
2022-09-06T14:12:15.686Z,1.50
2022-09-06T14:14:44.616Z,1.70
2022-09-06T14:17:14.732Z,1.67
2022-09-06T14:19:43.245Z,2.20
2022-09-06T14:22:11.601Z,2.10
2022-09-06T14:24:39.861Z,1.50
2022-09-06T14:27:08.650Z,1.90
2022-09-06T14:29:37.058Z,2.60
2022-09-06T14:32:05.312Z,2.17
2022-09-06T14:34:35.083Z,1.50
2022-09-06T14:37:03.164Z,1.87
2022-09-06T14:39:31.453Z,1.90
2022-09-06T14:41:59.647Z,1.50
2022-09-06T14:44:27.917Z,1.60
2022-09-06T14:46:56.066Z,1.50
2022-09-06T14:49:25.279Z,2.17
2022-09-06T14:51:54.862Z,1.93
2022-09-06T14:54:27.279Z,2.10
2022-09-06T14:56:57.228Z,1.80
2022-09-06T14:59:25.460Z,1.57
2022-09-06T15:01:53.888Z,1.80
2022-09-06T15:04:22.301Z,2.10
2022-09-06T15:06:51.109Z,1.83
2022-09-06T15:09:20.885Z,2.60
2022-09-06T15:11:50.710Z,1.80
2022-09-06T15:14:20.242Z,1.80
2022-09-06T15:16:54.805Z,2.00
2022-09-06T15:19:24.763Z,1.73
2022-09-06T15:21:53.624Z,1.80
2022-09-06T15:24:23.214Z,2.30
2022-09-06T15:26:51.492Z,1.90
2022-09-06T15:29:20.428Z,3.20
2022-09-06T15:31:50.510Z,1.80
2022-09-06T15:34:19.551Z,1.60
2022-09-06T15:36:47.812Z,1.70
2022-09-06T15:39:16.385Z,1.90
2022-09-06T15:41:46.038Z,1.83
2022-09-06T15:44:15.976Z,2.30
2022-09-06T15:46:47.349Z,2.50
2022-09-06T15:49:17.685Z,2.07
2022-09-06T15:51:45.939Z,1.63
2022-09-06T15:54:15.203Z,2.33
2022-09-06T15:56:44.197Z,2.00
2022-09-06T15:59:13.397Z,1.53
2022-09-06T16:01:41.821Z,2.60
2022-09-06T16:04:10.135Z,1.50
2022-09-06T16:06:39.870Z,2.17
2022-09-06T16:09:09.493Z,2.07
2022-09-06T16:11:38.072Z,1.63
2022-09-06T16:14:09.086Z,1.57
2022-09-06T16:16:38.415Z,2.07
2022-09-06T16:19:07.098Z,2.03
2022-09-06T16:21:35.920Z,2.00
2022-09-06T16:24:19.338Z,1.93
2022-09-06T16:26:56.854Z,2.47
2022-09-06T16:29:27.080Z,1.80
2022-09-06T16:31:59.800Z,1.70
2022-09-06T16:34:28.514Z,1.60
2022-09-06T16:36:57.079Z,2.27
2022-09-06T16:39:25.361Z,2.17
2022-09-06T16:41:53.586Z,1.90
2022-09-06T16:44:21.929Z,2.60
2022-09-06T16:46:53.426Z,2.00
2022-09-06T16:49:22.229Z,1.90
2022-09-06T16:51:51.187Z,2.00
2022-09-06T16:54:20.213Z,1.80
2022-09-06T16:56:48.642Z,2.87
2022-09-06T16:59:17.412Z,2.40
2022-09-06T17:01:45.941Z,2.17
2022-09-06T17:04:15.861Z,2.13
2022-09-06T17:06:45.798Z,2.40
2022-09-06T17:09:15.397Z,2.20
2022-09-06T17:11:43.586Z,4.27
2022-09-06T17:14:11.986Z,3.37
2022-09-06T17:16:57.446Z,4.00
2022-09-06T17:19:27.574Z,3.30
2022-09-06T17:21:55.758Z,2.90
2022-09-06T17:24:24.042Z,2.50
2022-09-06T17:26:52.275Z,2.83
2022-09-06T17:29:21.346Z,2.53
2022-09-06T17:31:49.618Z,2.83
2022-09-06T17:34:17.938Z,2.80
2022-09-06T17:36:47.447Z,2.90
2022-09-06T17:39:17.653Z,3.20
2022-09-06T17:41:46.963Z,2.57
2022-09-06T17:44:19.156Z,3.20
2022-09-06T17:47:09.058Z,4.00
2022-09-06T17:49:36.207Z,15.47
2022-09-06T17:52:05.835Z,55.00
2022-09-06T17:54:33.962Z,97.17
2022-09-06T17:57:02.054Z,20.53
2022-09-06T17:59:35.150Z,20.73
2022-09-06T18:02:04.006Z,12.57
2022-09-06T18:04:32.455Z,6.10
2022-09-06T18:07:00.714Z,4.93
2022-09-06T18:09:30.773Z,4.93
2022-09-06T18:11:59.229Z,6.30
2022-09-06T18:14:28.818Z,6.87
2022-09-06T18:16:57.327Z,6.73
2022-09-06T18:19:26.240Z,5.80
2022-09-06T18:21:55.125Z,5.63
2022-09-06T18:24:23.928Z,4.80
2022-09-06T18:26:53.638Z,5.67
2022-09-06T18:29:22.050Z,4.63
2022-09-06T18:31:53.650Z,3.43
2022-09-06T18:34:22.409Z,3.87
2022-09-06T18:36:50.650Z,3.63
2022-09-06T18:39:20.367Z,4.70
2022-09-06T18:42:09.525Z,4.27
2022-09-06T18:44:40.656Z,4.20
2022-09-06T18:47:09.958Z,10.00
2022-09-06T18:49:43.231Z,10.70
2022-09-06T18:52:12.430Z,7.83
2022-09-06T18:54:40.763Z,6.17
2022-09-06T18:57:09.085Z,5.17
2022-09-06T18:59:38.796Z,3.13
2022-09-06T19:02:07.475Z,2.77
2022-09-06T19:04:36.015Z,4.47
2022-09-06T19:07:05.036Z,3.77
2022-09-06T19:09:33.804Z,3.87
2022-09-06T19:12:03.598Z,4.03
2022-09-06T19:14:33.714Z,4.87
2022-09-06T19:17:04.428Z,3.50
2022-09-06T19:19:33.130Z,3.13
2022-09-06T19:22:02.187Z,3.20
2022-09-06T19:24:31.021Z,2.40
2022-09-06T19:27:00.889Z,2.00
2022-09-06T19:29:29.815Z,1.50
2022-09-06T19:31:58.617Z,1.47
2022-09-06T19:34:29.334Z,1.60
2022-09-06T19:36:58.924Z,1.57
2022-09-06T19:39:34.783Z,1.70
2022-09-06T19:42:06.357Z,1.97
2022-09-06T19:44:34.901Z,3.50
2022-09-06T19:47:03.544Z,2.10
2022-09-06T19:49:33.919Z,1.80
2022-09-06T19:52:04.332Z,2.40
2022-09-06T19:54:32.824Z,1.50
2022-09-06T19:57:01.039Z,1.37
2022-09-06T19:59:32.153Z,1.60
2022-09-06T20:02:00.444Z,1.57
2022-09-06T20:04:29.327Z,2.13
2022-09-06T20:06:59.395Z,2.20
2022-09-06T20:09:27.644Z,2.40
2022-09-06T20:11:56.059Z,2.03
2022-09-06T20:14:26.868Z,2.60
2022-09-06T20:17:02.852Z,2.20
2022-09-06T20:19:40.644Z,2.50
2022-09-06T20:22:11.562Z,3.60
2022-09-06T20:24:40.023Z,2.40
2022-09-06T20:27:08.240Z,2.50
2022-09-06T20:29:36.915Z,2.17
2022-09-06T20:32:05.463Z,2.83
2022-09-06T20:34:34.033Z,3.00
2022-09-06T20:37:02.848Z,2.87
2022-09-06T20:39:32.837Z,3.23
2022-09-06T20:42:01.256Z,2.23
2022-09-06T20:44:29.669Z,2.60
2022-09-06T20:46:57.879Z,2.80
2022-09-06T20:49:26.368Z,2.87
2022-09-06T20:51:54.630Z,3.20
2022-09-06T20:54:23.932Z,2.90
2022-09-06T20:56:55.261Z,3.53
2022-09-06T20:59:23.471Z,2.40
2022-09-06T21:01:51.663Z,2.60
2022-09-06T21:04:20.612Z,2.80
2022-09-06T21:06:51.143Z,2.60
2022-09-06T21:09:19.869Z,2.87
2022-09-06T21:11:48.345Z,2.83
2022-09-06T21:14:18.473Z,2.73
2022-09-06T21:16:46.745Z,2.70
2022-09-06T21:19:15.302Z,2.63
2022-09-06T21:21:44.060Z,1.93
2022-09-06T21:24:13.895Z,1.67
2022-09-06T21:26:44.810Z,1.63
2022-09-06T21:29:13.857Z,1.83
2022-09-06T21:31:43.459Z,1.80
2022-09-06T21:34:17.042Z,1.77
2022-09-06T21:36:46.112Z,2.00
2022-09-06T21:39:15.186Z,2.87
2022-09-06T21:41:44.926Z,2.47
2022-09-06T21:44:13.559Z,2.60
2022-09-06T21:46:44.078Z,2.40
2022-09-06T21:49:13.769Z,2.73
2022-09-06T21:51:42.750Z,3.33
2022-09-06T21:54:11.985Z,2.67
2022-09-06T21:56:41.272Z,2.30
2022-09-06T21:59:09.993Z,1.63
2022-09-06T22:01:39.909Z,2.23
2022-09-06T22:04:10.247Z,2.60
2022-09-06T22:06:39.168Z,2.70
2022-09-06T22:09:11.591Z,2.63
2022-09-06T22:11:41.205Z,1.97
2022-09-06T22:14:11.556Z,1.83
2022-09-06T22:16:41.385Z,2.07
2022-09-06T22:19:12.179Z,1.53
2022-09-06T22:21:40.485Z,1.80
2022-09-06T22:24:11.430Z,2.00
2022-09-06T22:26:41.363Z,1.80
2022-09-06T22:29:11.381Z,1.70
2022-09-06T22:31:40.225Z,1.53
2022-09-06T22:34:10.535Z,2.00
2022-09-06T22:36:38.768Z,1.87
2022-09-06T22:39:08.041Z,1.90
2022-09-06T22:41:36.737Z,1.67
2022-09-06T22:44:05.543Z,1.63
2022-09-06T22:46:34.610Z,1.53
2022-09-06T22:49:04.270Z,1.70
2022-09-06T22:51:34.439Z,1.40
2022-09-06T22:54:03.269Z,2.00
2022-09-06T22:56:31.894Z,1.60
2022-09-06T22:59:00.502Z,1.97
2022-09-06T23:01:30.455Z,1.47
2022-09-06T23:03:58.657Z,1.80
2022-09-06T23:06:27.623Z,1.53
2022-09-06T23:08:57.553Z,1.53
2022-09-06T23:11:25.834Z,1.50
2022-09-06T23:13:56.858Z,2.80
2022-09-06T23:16:26.556Z,1.50
2022-09-06T23:18:55.614Z,1.87
2022-09-06T23:21:25.390Z,1.57
2022-09-06T23:23:54.669Z,1.60
2022-09-06T23:26:26.403Z,1.30
2022-09-06T23:28:56.691Z,2.03
2022-09-06T23:31:26.162Z,1.60
2022-09-06T23:33:54.825Z,1.73
2022-09-06T23:36:23.303Z,1.73
2022-09-06T23:38:51.567Z,1.37
2022-09-06T23:41:20.476Z,1.27
2022-09-06T23:43:50.544Z,1.30
2022-09-06T23:46:19.343Z,2.07
2022-09-06T23:48:47.899Z,1.60
2022-09-06T23:51:16.570Z,1.40
2022-09-06T23:53:44.948Z,1.20
2022-09-06T23:56:13.240Z,1.60
2022-09-06T23:58:41.721Z,1.23
